Time;durP1;ratioP1;P1;durP2;ratioP2;P2;SDS_P1;SDS_P2;PMS_P1;PMS_P2;Temp;Humidity;BMP_temperature;BMP_pressure;BME280_temperature;BME280_humidity;BME280_pressure;Samples;Min_cycle;Max_cycle;Signal;HPM_P1;HPM_P2
2023/06/07 00:00:24;;;;;;;;;;;;;;;21.05;42.92;101402.69;4201747;28;19964;-68
2023/06/07 00:02:27;;;;;;;;;;;;;;;21.04;42.74;101403.75;4174431;28;20019;-68
2023/06/07 00:04:31;;;;;;;;;;;;;;;21.02;42.52;101401.25;4170671;28;20015;-68
2023/06/07 00:06:33;;;;;;;;;;;;;;;21.00;42.56;101402.53;4169091;28;20023;-67
2023/06/07 00:08:35;;;;;;;;;;;;;;;20.99;42.26;101404.44;4172569;28;20426;-67
2023/06/07 00:10:37;;;;;;;;;;;;;;;20.98;42.63;101404.69;4205250;28;20003;-67
2023/06/07 00:12:39;;;;;;;;;;;;;;;20.98;42.39;101405.50;4171937;28;20033;-67
2023/06/07 00:14:43;;;;;;;;;;;;;;;20.96;42.23;101409.56;4170754;28;20048;-67
2023/06/07 00:16:46;;;;;;;;;;;;;;;20.95;42.28;101405.13;4172503;28;20012;-67
2023/06/07 00:18:49;;;;;;;;;;;;;;;20.94;42.20;101406.19;4172240;28;20462;-68
2023/06/07 00:20:53;;;;;;;;;;;;;;;20.94;42.15;101408.94;4172713;28;20032;-67
2023/06/07 00:22:56;;;;;;;;;;;;;;;20.92;42.14;101413.84;4173419;28;20028;-67
2023/06/07 00:24:58;;;;;;;;;;;;;;;20.91;41.95;101406.66;4172677;28;20015;-68
2023/06/07 00:27:00;;;;;;;;;;;;;;;20.88;41.77;101407.97;4169615;28;20031;-67
2023/06/07 00:29:02;;;;;;;;;;;;;;;20.86;41.80;101401.84;4171746;28;20028;-67
2023/06/07 00:31:04;;;;;;;;;;;;;;;20.85;41.76;101408.44;4171287;28;20019;-68
2023/06/07 00:33:06;;;;;;;;;;;;;;;20.83;41.84;101405.91;4170763;28;20035;-68
2023/06/07 00:35:09;;;;;;;;;;;;;;;20.82;42.13;101404.22;4169922;28;20028;-67
2023/06/07 00:37:12;;;;;;;;;;;;;;;20.83;41.90;101403.16;4186951;28;20501;-68
2023/06/07 00:39:15;;;;;;;;;;;;;;;20.83;41.73;101403.16;4171231;28;20024;-68
2023/06/07 00:41:17;;;;;;;;;;;;;;;20.81;41.69;101393.47;4185268;28;20019;-68
2023/06/07 00:43:19;;;;;;;;;;;;;;;20.81;41.91;101404.47;4200472;28;19924;-68
2023/06/07 00:45:21;;;;;;;;;;;;;;;20.81;41.87;101405.28;4171028;28;20015;-67
2023/06/07 00:47:24;;;;;;;;;;;;;;;20.82;41.68;101403.41;4170518;28;20387;-68
2023/06/07 00:49:26;;;;;;;;;;;;;;;20.82;41.86;101400.66;4171569;28;20059;-67
2023/06/07 00:51:28;;;;;;;;;;;;;;;20.81;41.50;101398.97;4171039;28;20016;-68
2023/06/07 00:53:32;;;;;;;;;;;;;;;20.78;41.65;101403.00;4169861;28;20019;-67
2023/06/07 00:55:34;;;;;;;;;;;;;;;20.75;41.63;101403.47;4202029;28;20019;-68
2023/06/07 00:57:38;;;;;;;;;;;;;;;20.72;41.72;101406.69;4170953;28;20020;-68
2023/06/07 00:59:40;;;;;;;;;;;;;;;20.72;42.09;101401.19;4170433;28;20019;-68
2023/06/07 01:01:44;;;;;;;;;;;;;;;20.71;41.96;101396.78;4171687;28;20019;-67
2023/06/07 01:03:46;;;;;;;;;;;;;;;20.69;42.02;101396.16;4170715;28;20007;-67
2023/06/07 01:05:50;;;;;;;;;;;;;;;20.68;42.05;101399.97;4169803;28;20087;-67
2023/06/07 01:07:54;;;;;;;;;;;;;;;20.67;41.84;101398.28;4170703;28;20547;-68
2023/06/07 01:09:57;;;;;;;;;;;;;;;20.67;42.14;101396.41;4169236;28;20060;-68
2023/06/07 01:11:59;;;;;;;;;;;;;;;20.67;41.91;101393.66;4201889;28;20439;-68
2023/06/07 01:14:01;;;;;;;;;;;;;;;20.67;41.67;101392.78;4169929;28;20047;-68
2023/06/07 01:16:04;;;;;;;;;;;;;;;20.68;41.88;101394.47;4202586;28;20015;-68
2023/06/07 01:18:09;;;;;;;;;;;;;;;20.67;41.69;101396.41;4170907;28;20029;-68
2023/06/07 01:20:12;;;;;;;;;;;;;;;20.65;41.67;101392.19;4169123;28;20017;-68
2023/06/07 01:22:14;;;;;;;;;;;;;;;20.64;41.64;101393.22;4170692;28;20015;-68
2023/06/07 01:24:18;;;;;;;;;;;;;;;20.62;41.54;101407.16;4189690;28;20015;-68
2023/06/07 01:26:20;;;;;;;;;;;;;;;20.60;41.35;101397.50;4170387;28;20012;-68
2023/06/07 01:28:22;;;;;;;;;;;;;;;20.59;41.35;101396.63;4201887;28;20024;-68
2023/06/07 01:30:24;;;;;;;;;;;;;;;20.58;41.47;101396.88;4201273;28;20012;-68
2023/06/07 01:32:41;;;;;;;;;;;;;;;20.55;41.34;101391.84;4170253;28;20451;-68
2023/06/07 01:34:43;;;;;;;;;;;;;;;20.55;41.67;101394.56;4201447;28;19952;-68
2023/06/07 01:36:46;;;;;;;;;;;;;;;20.53;41.50;101390.19;4170356;28;20043;-67
2023/06/07 01:38:49;;;;;;;;;;;;;;;20.50;41.45;101393.38;4169648;28;20020;-67
2023/06/07 01:40:53;;;;;;;;;;;;;;;20.52;41.51;101393.97;4170882;28;20024;-68
2023/06/07 01:42:55;;;;;;;;;;;;;;;20.51;41.31;101395.03;4200835;28;20402;-68
2023/06/07 01:44:57;;;;;;;;;;;;;;;20.50;41.40;101387.88;4201306;28;20482;-67
2023/06/07 01:46:59;;;;;;;;;;;;;;;20.49;41.54;101394.44;4170630;28;20027;-67
2023/06/07 01:49:01;;;;;;;;;;;;;;;20.50;41.54;101395.25;4170061;28;20023;-68
2023/06/07 01:51:04;;;;;;;;;;;;;;;20.49;41.26;101388.13;4201965;28;20019;-68
2023/06/07 01:53:06;;;;;;;;;;;;;;;20.48;41.04;101390.00;4200972;28;20026;-68
2023/06/07 01:55:08;;;;;;;;;;;;;;;20.45;41.39;101384.97;4170563;28;20019;-68
2023/06/07 01:57:16;;;;;;;;;;;;;;;20.46;41.36;101385.81;4200614;28;20446;-68
2023/06/07 01:59:20;;;;;;;;;;;;;;;20.44;41.44;101385.19;4170332;28;20020;-68
2023/06/07 02:01:23;;;;;;;;;;;;;;;20.44;41.58;101380.56;4202665;28;20457;-67
2023/06/07 02:03:27;;;;;;;;;;;;;;;20.45;41.44;101384.13;4170287;28;20501;-68
2023/06/07 02:05:38;;;;;;;;;;;;;;;20.45;41.32;101384.13;4183673;28;20036;-68
2023/06/07 02:07:46;;;;;;;;;;;;;;;20.44;41.31;101380.56;4219150;28;20014;-68
2023/06/07 02:09:48;;;;;;;;;;;;;;;20.43;41.47;101384.38;4187025;28;20027;-68
2023/06/07 02:11:50;;;;;;;;;;;;;;;20.40;41.58;101376.59;4186619;28;20008;-68
2023/06/07 02:13:54;;;;;;;;;;;;;;;20.38;41.32;101375.16;4168425;28;20031;-68
2023/06/07 02:15:56;;;;;;;;;;;;;;;20.37;41.55;101370.72;4218732;28;20019;-68
2023/06/07 02:17:58;;;;;;;;;;;;;;;20.35;41.42;101369.03;4186416;28;20068;-68
2023/06/07 02:20:00;;;;;;;;;;;;;;;20.35;41.23;101369.03;4186508;28;20047;-68
2023/06/07 02:22:03;;;;;;;;;;;;;;;20.35;41.05;101370.94;4185593;28;20011;-68
2023/06/07 02:24:05;;;;;;;;;;;;;;;20.35;41.24;101376.44;4217398;28;20002;-68
2023/06/07 02:26:09;;;;;;;;;;;;;;;20.34;41.12;101375.59;4218696;28;20346;-68
2023/06/07 02:28:11;;;;;;;;;;;;;;;20.35;41.23;101376.44;4185637;28;20008;-68
2023/06/07 02:30:15;;;;;;;;;;;;;;;20.34;41.04;101377.50;4185728;28;20031;-68
2023/06/07 02:32:17;;;;;;;;;;;;;;;20.33;41.14;101370.34;4185397;28;20023;-68
2023/06/07 02:34:21;;;;;;;;;;;;;;;20.31;41.00;101367.84;4185465;28;20032;-68
2023/06/07 02:36:25;;;;;;;;;;;;;;;20.32;41.10;101376.88;4187107;28;20011;-68
2023/06/07 02:38:27;;;;;;;;;;;;;;;20.31;41.16;101375.19;4186148;28;20024;-68
2023/06/07 02:40:29;;;;;;;;;;;;;;;20.31;41.21;101375.19;4183440;28;20032;-68
2023/06/07 02:42:33;;;;;;;;;;;;;;;20.29;40.93;101366.38;4185519;28;20035;-68
2023/06/07 02:44:35;;;;;;;;;;;;;;;20.30;40.94;101376.28;4186230;28;20039;-68
2023/06/07 02:46:39;;;;;;;;;;;;;;;20.28;40.98;101372.91;4169018;28;20007;-68
2023/06/07 02:48:41;;;;;;;;;;;;;;;20.28;41.30;101361.94;4200949;28;20343;-68
2023/06/07 02:50:43;;;;;;;;;;;;;;;20.28;41.30;101367.41;4185593;28;20027;-68
2023/06/07 02:52:45;;;;;;;;;;;;;;;20.27;41.17;101365.75;4216906;28;20446;-67
2023/06/07 02:54:48;;;;;;;;;;;;;;;20.26;40.80;101366.81;4185404;28;19999;-68
2023/06/07 02:56:50;;;;;;;;;;;;;;;20.22;41.15;101354.63;4201677;28;20014;-68
2023/06/07 02:58:52;;;;;;;;;;;;;;;20.25;41.06;101362.38;4184750;28;20014;-68
2023/06/07 03:00:56;;;;;;;;;;;;;;;20.25;41.00;101365.13;4184949;28;20026;-67
2023/06/07 03:03:00;;;;;;;;;;;;;;;20.24;40.99;101367.03;4187074;28;20007;-68
2023/06/07 03:05:03;;;;;;;;;;;;;;;20.22;41.10;101366.44;4180874;28;20003;-68
2023/06/07 03:07:06;;;;;;;;;;;;;;;20.21;40.87;101367.50;4201889;28;20031;-67
2023/06/07 03:09:15;;;;;;;;;;;;;;;20.20;40.98;101364.97;4169832;28;20023;-68
2023/06/07 03:11:17;;;;;;;;;;;;;;;20.17;40.83;101369.88;4184069;28;20019;-67
2023/06/07 03:13:23;;;;;;;;;;;;;;;20.18;40.90;101376.19;4187032;28;20008;-68
2023/06/07 03:15:25;;;;;;;;;;;;;;;20.17;40.90;101369.88;4187833;28;20015;-67
2023/06/07 03:17:28;;;;;;;;;;;;;;;20.17;40.98;101369.88;4189218;28;20019;-68
2023/06/07 03:19:34;;;;;;;;;;;;;;;20.17;41.22;101369.88;4187616;28;20004;-68
2023/06/07 03:21:38;;;;;;;;;;;;;;;20.19;41.25;101377.88;4187780;28;20015;-68
2023/06/07 03:23:42;;;;;;;;;;;;;;;20.19;41.06;101375.13;4203453;28;20028;-68
2023/06/07 03:25:45;;;;;;;;;;;;;;;20.21;41.13;101377.63;4187566;28;20020;-68
2023/06/07 03:27:49;;;;;;;;;;;;;;;20.20;40.99;101387.75;4221233;28;20503;-68
2023/06/07 03:29:59;;;;;;;;;;;;;;;20.17;41.01;101382.72;4186471;28;20067;-68
2023/06/07 03:32:01;;;;;;;;;;;;;;;20.16;41.22;101381.06;4188832;28;20380;-69
2023/06/07 03:34:03;;;;;;;;;;;;;;;20.14;41.10;101378.53;4188997;28;20016;-68
2023/06/07 03:36:11;;;;;;;;;;;;;;;20.15;41.53;101382.13;4187940;28;20018;-68
2023/06/07 03:38:17;;;;;;;;;;;;;;;20.16;41.20;101381.06;4187848;28;20024;-68
2023/06/07 03:40:20;;;;;;;;;;;;;;;20.16;41.22;101389.28;4220861;28;20018;-68
2023/06/07 03:42:22;;;;;;;;;;;;;;;20.17;41.60;101389.06;4168176;28;20039;-68
2023/06/07 03:44:24;;;;;;;;;;;;;;;20.18;41.50;101384.41;4219603;28;20012;-68
2023/06/07 03:46:27;;;;;;;;;;;;;;;20.20;41.54;101378.69;4187946;28;20027;-68
2023/06/07 03:48:30;;;;;;;;;;;;;;;20.19;41.43;101380.59;4204272;28;20024;-68
2023/06/07 03:50:33;;;;;;;;;;;;;;;20.17;41.27;101374.50;4220255;28;20472;-68
2023/06/07 03:52:37;;;;;;;;;;;;;;;20.19;41.31;101380.59;4186228;28;20027;-68
2023/06/07 03:54:39;;;;;;;;;;;;;;;20.21;41.48;101374.91;4186561;28;20040;-68
2023/06/07 03:56:44;;;;;;;;;;;;;;;20.20;40.97;101381.44;4203516;28;20031;-68
2023/06/07 03:58:47;;;;;;;;;;;;;;;20.19;41.23;101382.50;4219141;28;20019;-68
2023/06/07 04:00:53;;;;;;;;;;;;;;;20.20;41.03;101381.44;4171322;28;20011;-68
2023/06/07 04:02:56;;;;;;;;;;;;;;;20.18;40.87;101378.91;4187823;28;20015;-68
2023/06/07 04:04:58;;;;;;;;;;;;;;;20.17;40.96;101377.22;4202621;28;20051;-68
2023/06/07 04:07:02;;;;;;;;;;;;;;;20.16;41.07;101373.66;4219146;28;20540;-68
2023/06/07 04:09:06;;;;;;;;;;;;;;;20.17;41.16;101378.09;4218870;28;20479;-68
2023/06/07 04:11:08;;;;;;;;;;;;;;;20.19;40.95;101375.13;4186450;28;20022;-68
2023/06/07 04:13:10;;;;;;;;;;;;;;;20.21;41.25;101383.13;4187990;28;20166;-68
2023/06/07 04:15:13;;;;;;;;;;;;;;;20.22;41.24;101385.66;4202568;28;20015;-68
2023/06/07 04:17:15;;;;;;;;;;;;;;;20.25;41.14;101381.59;4187967;28;20019;-67
2023/06/07 04:19:18;;;;;;;;;;;;;;;20.25;41.15;101384.34;4186473;28;20011;-68
2023/06/07 04:21:21;;;;;;;;;;;;;;;20.25;40.93;101382.44;4185793;28;20438;-67
2023/06/07 04:23:23;;;;;;;;;;;;;;;20.26;41.01;101381.38;4185627;28;20430;-67
2023/06/07 04:25:31;;;;;;;;;;;;;;;20.27;41.27;101379.47;4186047;28;20023;-68
2023/06/07 04:27:34;;;;;;;;;;;;;;;20.28;41.35;101376.50;4203534;28;20015;-68
2023/06/07 04:29:39;;;;;;;;;;;;;;;20.28;41.00;101379.25;4216665;28;20011;-68
2023/06/07 04:31:41;;;;;;;;;;;;;;;20.28;41.15;101375.66;4171715;28;20465;-67
2023/06/07 04:33:46;;;;;;;;;;;;;;;20.29;41.08;101377.34;4185316;28;20057;-68
2023/06/07 04:35:50;;;;;;;;;;;;;;;20.31;41.07;101381.53;4183192;28;20048;-69
2023/06/07 04:37:55;;;;;;;;;;;;;;;20.32;40.57;101385.13;4197921;28;20406;-68
2023/06/07 04:40:00;;;;;;;;;;;;;;;20.33;40.89;101384.06;4185489;28;20015;-68
2023/06/07 04:42:05;;;;;;;;;;;;;;;20.34;40.57;101383.84;4187648;28;20031;-69
2023/06/07 04:44:08;;;;;;;;;;;;;;;20.36;40.92;101389.09;4169531;28;20483;-68
2023/06/07 04:46:15;;;;;;;;;;;;;;;20.37;41.02;101393.50;4203835;28;20027;-69
2023/06/07 04:48:20;;;;;;;;;;;;;;;20.39;41.03;101382.28;4217987;28;20392;-69
2023/06/07 04:50:22;;;;;;;;;;;;;;;20.41;41.10;101388.41;4185996;28;20394;-69
2023/06/07 04:52:25;;;;;;;;;;;;;;;20.43;41.17;101389.84;4185800;28;20024;-69
2023/06/07 04:54:36;;;;;;;;;;;;;;;20.45;40.92;101389.63;4184936;28;20032;-69
2023/06/07 04:56:38;;;;;;;;;;;;;;;20.46;41.04;101383.91;4186875;28;20027;-69
2023/06/07 04:58:42;;;;;;;;;;;;;;;20.47;40.79;101387.47;4202526;28;20022;-68
2023/06/07 05:00:51;;;;;;;;;;;;;;;20.49;41.02;101388.94;4186487;28;20024;-69
2023/06/07 05:02:53;;;;;;;;;;;;;;;20.50;40.61;101387.88;4216928;28;20054;-69
2023/06/07 05:04:57;;;;;;;;;;;;;;;20.52;40.66;101388.50;4170448;28;20039;-69
2023/06/07 05:07:00;;;;;;;;;;;;;;;20.54;40.54;101388.25;4168918;28;20307;-69
2023/06/07 05:09:06;;;;;;;;;;;;;;;20.55;40.57;101386.34;4153901;28;20024;-69
2023/06/07 05:11:10;;;;;;;;;;;;;;;20.56;40.32;101385.28;4218573;28;20031;-68
2023/06/07 05:13:13;;;;;;;;;;;;;;;20.57;40.42;101386.97;4185832;28;20027;-69
2023/06/07 05:15:16;;;;;;;;;;;;;;;20.57;40.55;101392.47;4186135;28;20446;-68
2023/06/07 05:17:20;;;;;;;;;;;;;;;20.57;40.44;101386.97;4201939;28;20391;-69
2023/06/07 05:19:25;;;;;;;;;;;;;;;20.56;40.33;101391.59;4218505;28;20016;-69
2023/06/07 05:21:28;;;;;;;;;;;;;;;20.55;40.57;101389.09;4186079;28;20012;-69
2023/06/07 05:23:30;;;;;;;;;;;;;;;20.56;40.47;101393.53;4184245;28;20023;-67
2023/06/07 05:25:33;;;;;;;;;;;;;;;20.56;40.14;101397.09;4192879;28;20015;-68
2023/06/07 05:27:36;;;;;;;;;;;;;;;20.57;40.20;101396.03;4169830;28;20366;-68
2023/06/07 05:29:40;;;;;;;;;;;;;;;20.57;40.59;101404.28;4186490;28;20042;-68
2023/06/07 05:31:43;;;;;;;;;;;;;;;20.58;40.76;101391.38;4170203;28;20411;-69
2023/06/07 05:33:46;;;;;;;;;;;;;;;20.58;40.66;101405.97;4185844;28;20011;-69
2023/06/07 05:35:52;;;;;;;;;;;;;;;20.59;40.64;101390.31;4184858;28;20023;-69
2023/06/07 05:37:54;;;;;;;;;;;;;;;20.60;40.69;101405.72;4183102;28;20027;-69
2023/06/07 05:39:56;;;;;;;;;;;;;;;20.59;40.96;101393.91;4200830;28;20014;-69
2023/06/07 05:41:58;;;;;;;;;;;;;;;20.61;40.83;101394.53;4184170;28;20007;-69
2023/06/07 05:44:04;;;;;;;;;;;;;;;20.61;40.61;101393.66;4202173;28;20414;-69
2023/06/07 05:46:08;;;;;;;;;;;;;;;20.61;40.67;101400.00;4185388;28;20008;-69
2023/06/07 05:48:11;;;;;;;;;;;;;;;20.62;40.77;101398.94;4185883;28;20031;-68
2023/06/07 05:50:14;;;;;;;;;;;;;;;20.62;40.81;101396.19;4201047;28;20019;-69
2023/06/07 05:52:18;;;;;;;;;;;;;;;20.63;40.53;101402.53;4185551;28;20099;-69
2023/06/07 05:54:22;;;;;;;;;;;;;;;20.62;40.86;101401.69;4185771;28;20016;-68
2023/06/07 05:56:24;;;;;;;;;;;;;;;20.64;40.53;101398.69;4186511;28;20008;-68
2023/06/07 05:58:27;;;;;;;;;;;;;;;20.65;40.51;101397.69;4187027;28;19925;-68
2023/06/07 06:00:40;;;;;;;;;;;;;;;20.65;40.76;101397.69;4186666;28;20011;-69
2023/06/07 06:02:45;;;;;;;;;;;;;;;20.66;40.40;101396.63;4186906;28;20059;-68
2023/06/07 06:04:49;;;;;;;;;;;;;;;20.67;40.64;101404.63;4186749;28;20011;-69
2023/06/07 06:06:51;;;;;;;;;;;;;;;20.70;40.65;101403.31;4185925;28;21033;-70
2023/06/07 06:08:54;;;;;;;;;;;;;;;20.73;40.48;101402.03;4185472;28;20008;-68
2023/06/07 06:10:56;;;;;;;;;;;;;;;20.73;40.13;101405.59;4188072;28;20019;-68
2023/06/07 06:13:02;;;;;;;;;;;;;;;20.76;40.48;101404.31;4185481;28;20023;-68
2023/06/07 06:15:05;;;;;;;;;;;;;;;20.78;40.28;101405.75;4217921;28;19998;-67
2023/06/07 06:17:07;;;;;;;;;;;;;;;20.79;40.32;101407.44;4186965;28;20031;-69
2023/06/07 06:19:12;;;;;;;;;;;;;;;20.82;40.32;101412.47;4184214;28;20855;-70
2023/06/07 06:21:15;;;;;;;;;;;;;;;20.84;40.33;101412.25;4209987;28;20363;-69
2023/06/07 06:23:17;;;;;;;;;;;;;;;20.86;40.19;101412.84;4186246;28;20012;-70
2023/06/07 06:25:19;;;;;;;;;;;;;;;20.88;40.17;101413.47;4185701;28;20453;-69
2023/06/07 06:27:21;;;;;;;;;;;;;;;20.90;40.21;101414.06;4186715;28;20465;-68
2023/06/07 06:29:23;;;;;;;;;;;;;;;20.91;40.28;101420.38;4177185;28;20340;-68
2023/06/07 06:31:25;;;;;;;;;;;;;;;20.93;40.25;101419.09;4186801;28;20024;-68
2023/06/07 06:33:27;;;;;;;;;;;;;;;20.93;40.59;101419.09;4185488;28;20022;-68
2023/06/07 06:35:32;;;;;;;;;;;;;;;20.94;40.32;101420.78;4185596;28;20016;-69
2023/06/07 06:37:41;;;;;;;;;;;;;;;20.96;40.61;101418.66;4186158;28;19925;-69
2023/06/07 06:39:48;;;;;;;;;;;;;;;20.98;40.68;101419.25;4185710;28;20015;-68
2023/06/07 06:41:52;;;;;;;;;;;;;;;20.99;40.53;101423.69;4185429;28;20024;-69
2023/06/07 06:44:10;;;;;;;;;;;;;;;21.01;40.35;101427.03;4220184;28;20035;-70
2023/06/07 06:46:12;;;;;;;;;;;;;;;21.02;40.12;101414.97;4190304;28;20028;-69
2023/06/07 06:48:18;;;;;;;;;;;;;;;21.03;40.08;101421.28;4190015;28;20019;-69
2023/06/07 06:50:20;;;;;;;;;;;;;;;21.06;40.39;101418.09;4188721;28;20023;-69
2023/06/07 06:52:22;;;;;;;;;;;;;;;21.08;40.17;101417.84;4188789;28;20019;-70
2023/06/07 06:54:26;;;;;;;;;;;;;;;21.12;40.37;101421.84;4188797;28;20003;-70
2023/06/07 06:56:29;;;;;;;;;;;;;;;21.12;40.40;101417.16;4190490;28;20023;-70
2023/06/07 06:58:34;;;;;;;;;;;;;;;21.14;40.52;101417.78;4188621;28;20026;-70
2023/06/07 07:00:39;;;;;;;;;;;;;;;21.17;40.17;101420.06;4188951;28;19928;-68
2023/06/07 07:02:42;;;;;;;;;;;;;;;21.18;40.17;101419.00;4188169;28;20031;-69
2023/06/07 07:04:44;;;;;;;;;;;;;;;21.20;40.40;101418.75;4189105;28;20027;-69
2023/06/07 07:06:48;;;;;;;;;;;;;;;21.21;40.31;101413.03;4188581;28;20025;-68
2023/06/07 07:08:50;;;;;;;;;;;;;;;21.23;40.38;101410.06;4189557;28;20016;-69
2023/06/07 07:10:54;;;;;;;;;;;;;;;21.24;40.23;101411.75;4189649;28;20467;-69
2023/06/07 07:12:56;;;;;;;;;;;;;;;21.24;40.47;101409.00;4189077;28;20024;-69
2023/06/07 07:14:58;;;;;;;;;;;;;;;21.27;40.20;101410.44;4187729;28;20023;-72
2023/06/07 07:16:59;;;;;;;;;;;;;;;21.29;40.58;101406.38;4188948;28;20047;-73
2023/06/07 07:19:02;;;;;;;;;;;;;;;21.33;40.62;101415.00;4189149;28;20003;-72
2023/06/07 07:21:04;;;;;;;;;;;;;;;21.35;40.86;101410.13;4189703;28;20011;-73
2023/06/07 07:23:06;;;;;;;;;;;;;;;21.37;40.78;101416.22;4189143;28;20027;-68
2023/06/07 07:25:09;;;;;;;;;;;;;;;21.38;40.61;101413.25;4189493;28;19924;-69
2023/06/07 07:27:12;;;;;;;;;;;;;;;21.37;40.67;101408.81;4188424;28;20020;-68
2023/06/07 07:29:15;;;;;;;;;;;;;;;21.43;40.55;101418.03;4188161;28;20015;-69
2023/06/07 07:31:17;;;;;;;;;;;;;;;21.45;40.48;101410.38;4185541;28;20023;-69
2023/06/07 07:33:19;;;;;;;;;;;;;;;21.48;40.48;101418.16;4186161;28;20023;-69
2023/06/07 07:35:21;;;;;;;;;;;;;;;21.50;40.48;101415.22;4185987;28;20011;-69
2023/06/07 07:37:25;;;;;;;;;;;;;;;21.52;40.49;101419.41;4188333;28;20023;-69
2023/06/07 07:39:27;;;;;;;;;;;;;;;21.56;40.52;101422.53;4187282;28;20036;-68
2023/06/07 07:41:29;;;;;;;;;;;;;;;21.57;40.29;101422.28;4186210;28;20024;-69
2023/06/07 07:43:33;;;;;;;;;;;;;;;21.59;40.42;101422.06;4190327;28;20015;-69
2023/06/07 07:45:35;;;;;;;;;;;;;;;21.62;40.48;101421.59;4188396;28;20004;-69
2023/06/07 07:47:37;;;;;;;;;;;;;;;21.64;40.37;101424.09;4188430;28;20015;-68
2023/06/07 07:49:39;;;;;;;;;;;;;;;21.67;40.42;101423.63;4189473;28;20019;-69
2023/06/07 07:51:41;;;;;;;;;;;;;;;21.68;40.44;101411.56;4189453;28;20299;-69
2023/06/07 07:53:43;;;;;;;;;;;;;;;21.71;40.39;101409.19;4189335;28;20017;-69
2023/06/07 07:55:46;;;;;;;;;;;;;;;21.75;40.22;101415.03;4186810;28;20023;-69
2023/06/07 07:57:48;;;;;;;;;;;;;;;21.75;40.20;101410.38;4187887;28;20019;-69
2023/06/07 07:59:51;;;;;;;;;;;;;;;21.78;40.09;101412.66;4185340;28;19981;-68
2023/06/07 08:01:53;;;;;;;;;;;;;;;21.82;40.15;101420.44;4188416;28;20465;-69
2023/06/07 08:03:55;;;;;;;;;;;;;;;21.84;40.26;101416.38;4189285;28;20052;-69
2023/06/07 08:05:58;;;;;;;;;;;;;;;21.85;40.15;101420.81;4189786;28;20052;-69
2023/06/07 08:08:00;;;;;;;;;;;;;;;21.88;40.13;101414.00;4189228;28;20015;-69
2023/06/07 08:10:04;;;;;;;;;;;;;;;21.88;40.12;101406.59;4188737;28;20016;-69
2023/06/07 08:12:07;;;;;;;;;;;;;;;21.91;39.98;101408.03;4187040;28;20027;-68
2023/06/07 08:14:08;;;;;;;;;;;;;;;21.93;40.06;101406.72;4187161;28;20015;-68
2023/06/07 08:16:12;;;;;;;;;;;;;;;21.96;39.99;101403.50;4188805;28;20025;-68
2023/06/07 08:18:14;;;;;;;;;;;;;;;22.00;40.04;101400.28;4188440;28;20019;-68
2023/06/07 08:20:16;;;;;;;;;;;;;;;22.07;39.74;101406.47;4186676;28;20012;-68
2023/06/07 08:22:18;;;;;;;;;;;;;;;22.12;39.65;101403.88;4187611;28;20012;-69
2023/06/07 08:24:20;;;;;;;;;;;;;;;22.14;39.67;101393.47;4188644;28;20433;-68
2023/06/07 08:26:22;;;;;;;;;;;;;;;22.16;39.59;101395.97;4189248;28;20019;-69
2023/06/07 08:28:24;;;;;;;;;;;;;;;22.17;39.69;101398.50;4186275;28;20019;-68
2023/06/07 08:30:26;;;;;;;;;;;;;;;22.20;39.50;101394.44;4187979;28;20534;-69
2023/06/07 08:32:29;;;;;;;;;;;;;;;22.26;39.63;101398.97;4188142;28;20373;-68
2023/06/07 08:34:31;;;;;;;;;;;;;;;22.27;39.53;101397.88;4187432;28;20036;-68
2023/06/07 08:36:33;;;;;;;;;;;;;;;22.26;39.61;101399.81;4187864;28;20465;-69
2023/06/07 08:38:36;;;;;;;;;;;;;;;22.25;39.47;101400.06;4189263;28;20023;-68
2023/06/07 08:40:38;;;;;;;;;;;;;;;22.25;39.72;101389.88;4187164;28;20027;-69
2023/06/07 08:42:40;;;;;;;;;;;;;;;22.26;39.57;101393.47;4187590;28;20420;-68
2023/06/07 08:44:42;;;;;;;;;;;;;;;22.28;39.62;101399.56;4187414;28;20004;-68
2023/06/07 08:46:44;;;;;;;;;;;;;;;22.27;39.50;101392.38;4219685;28;20015;-68
2023/06/07 08:48:49;;;;;;;;;;;;;;;22.29;39.54;101393.81;4187830;28;20011;-69
2023/06/07 08:50:51;;;;;;;;;;;;;;;22.29;39.55;101401.25;4187314;28;20423;-68
2023/06/07 08:52:54;;;;;;;;;;;;;;;22.29;39.65;101399.34;4187706;28;20031;-68
2023/06/07 08:54:58;;;;;;;;;;;;;;;22.30;39.35;101390.03;4218230;28;20378;-68
2023/06/07 08:57:00;;;;;;;;;;;;;;;22.30;39.67;101397.44;4186801;28;20058;-68
2023/06/07 08:59:03;;;;;;;;;;;;;;;22.29;39.62;101391.06;4188372;28;20023;-68
2023/06/07 09:01:05;;;;;;;;;;;;;;;22.31;39.63;101386.19;4187509;28;20031;-68
2023/06/07 09:03:07;;;;;;;;;;;;;;;22.34;39.55;101390.38;4187756;28;20007;-68
2023/06/07 09:05:11;;;;;;;;;;;;;;;22.36;39.85;101393.72;4188021;28;20357;-68
2023/06/07 09:07:13;;;;;;;;;;;;;;;22.40;39.45;101394.94;4187706;28;20019;-68
2023/06/07 09:09:16;;;;;;;;;;;;;;;22.41;39.61;101387.50;4187977;28;20028;-68
2023/06/07 09:11:21;;;;;;;;;;;;;;;22.43;39.52;101388.09;4187488;28;20023;-68
2023/06/07 09:13:24;;;;;;;;;;;;;;;22.48;39.53;101394.56;4187461;28;20032;-68
2023/06/07 09:15:26;;;;;;;;;;;;;;;22.50;39.41;101386.06;4186263;28;20381;-68
2023/06/07 09:17:39;;;;;;;;;;;;;;;22.52;39.21;101388.56;4186969;28;20007;-69
2023/06/07 09:19:42;;;;;;;;;;;;;;;22.54;39.30;101387.28;4185586;28;20384;-68
2023/06/07 09:21:45;;;;;;;;;;;;;;;22.54;39.28;101389.16;4187387;28;20028;-69
2023/06/07 09:23:47;;;;;;;;;;;;;;;22.55;39.50;101388.09;4216966;28;20023;-68
2023/06/07 09:25:49;;;;;;;;;;;;;;;22.55;39.40;101380.66;4187716;28;20599;-68
2023/06/07 09:27:51;;;;;;;;;;;;;;;22.55;39.36;101382.59;4188744;28;20031;-68
2023/06/07 09:29:55;;;;;;;;;;;;;;;22.57;39.32;101389.53;4186872;28;20016;-68
2023/06/07 09:31:58;;;;;;;;;;;;;;;22.60;39.22;101379.94;4186536;28;20015;-68
2023/06/07 09:34:04;;;;;;;;;;;;;;;22.61;39.37;101385.22;4187186;28;20019;-68
2023/06/07 09:36:07;;;;;;;;;;;;;;;22.63;39.24;101376.69;4186614;28;19971;-68
2023/06/07 09:38:11;;;;;;;;;;;;;;;22.63;39.28;101377.56;4186338;28;20439;-68
2023/06/07 09:40:14;;;;;;;;;;;;;;;22.64;39.18;101368.19;4186185;28;20446;-68
2023/06/07 09:42:17;;;;;;;;;;;;;;;22.70;38.99;101382.09;4186135;28;20125;-68
2023/06/07 09:44:22;;;;;;;;;;;;;;;22.73;38.97;101376.94;4186107;28;20032;-68
2023/06/07 09:46:28;;;;;;;;;;;;;;;22.72;39.03;101377.19;4185383;28;20217;-68
2023/06/07 09:48:30;;;;;;;;;;;;;;;22.71;38.85;101370.00;4186497;28;20015;-68
2023/06/07 09:50:32;;;;;;;;;;;;;;;22.74;39.00;101375.84;4183321;28;20395;-68
2023/06/07 09:52:34;;;;;;;;;;;;;;;22.78;38.80;101376.22;4186434;28;20347;-68
2023/06/07 09:54:38;;;;;;;;;;;;;;;22.79;38.49;101378.72;4186022;28;20399;-68
2023/06/07 09:56:41;;;;;;;;;;;;;;;22.80;38.67;101369.34;4170035;28;20011;-68
2023/06/07 09:58:46;;;;;;;;;;;;;;;22.80;38.55;101368.53;4185520;28;20011;-68
2023/06/07 10:00:48;;;;;;;;;;;;;;;22.78;38.74;101374.28;4185819;28;20030;-69
2023/06/07 10:02:50;;;;;;;;;;;;;;;22.83;38.62;101376.31;4186203;28;20020;-68
2023/06/07 10:04:55;;;;;;;;;;;;;;;22.82;38.63;101374.63;4184433;28;20040;-68
2023/06/07 10:07:00;;;;;;;;;;;;;;;22.82;38.50;101377.38;4187526;28;20027;-68
2023/06/07 10:09:03;;;;;;;;;;;;;;;22.82;38.69;101366.34;4217462;28;20433;-68
2023/06/07 10:11:07;;;;;;;;;;;;;;;22.82;38.51;101366.34;4187414;28;20023;-68
2023/06/07 10:13:09;;;;;;;;;;;;;;;22.82;38.70;101363.59;4186574;28;20383;-68
2023/06/07 10:15:12;;;;;;;;;;;;;;;22.83;38.52;101359.78;4184742;28;20015;-68
2023/06/07 10:17:14;;;;;;;;;;;;;;;22.84;38.60;101361.47;4186569;28;20019;-68
2023/06/07 10:19:17;;;;;;;;;;;;;;;22.86;38.67;101367.56;4185665;28;20414;-68
2023/06/07 10:21:19;;;;;;;;;;;;;;;22.90;38.61;101367.91;4186515;28;20018;-68
2023/06/07 10:23:26;;;;;;;;;;;;;;;22.92;38.57;101363.81;4187492;28;20365;-68
2023/06/07 10:25:31;;;;;;;;;;;;;;;22.94;38.62;101358.06;4187311;28;20000;-69
2023/06/07 10:27:36;;;;;;;;;;;;;;;22.95;38.64;101363.34;4186400;28;20343;-68
2023/06/07 10:29:39;;;;;;;;;;;;;;;22.94;38.38;101356.16;4186317;28;19999;-68
2023/06/07 10:31:43;;;;;;;;;;;;;;;22.95;38.49;101363.34;4168798;28;20446;-68